sensor_id;sensor_type;location;lat;lon;timestamp;temperature;humidity
59146;DHT22;44928;53.074;6.646;2023-04-06T00:01:31;2.50;99.90
59146;DHT22;44928;53.074;6.646;2023-04-06T00:03:57;2.50;99.90
59146;DHT22;44928;53.074;6.646;2023-04-06T00:06:23;2.50;99.90
59146;DHT22;44928;53.074;6.646;2023-04-06T00:08:49;2.50;99.90
59146;DHT22;44928;53.074;6.646;2023-04-06T00:11:15;2.40;99.90
59146;DHT22;44928;53.074;6.646;2023-04-06T00:13:42;2.40;99.90
59146;DHT22;44928;53.074;6.646;2023-04-06T00:16:08;2.40;99.90
59146;DHT22;44928;53.074;6.646;2023-04-06T00:18:34;2.40;99.90
59146;DHT22;44928;53.074;6.646;2023-04-06T00:21:00;2.30;99.90
59146;DHT22;44928;53.074;6.646;2023-04-06T00:23:25;2.30;99.90
59146;DHT22;44928;53.074;6.646;2023-04-06T00:25:51;2.30;99.90
59146;DHT22;44928;53.074;6.646;2023-04-06T00:28:17;2.30;99.90
59146;DHT22;44928;53.074;6.646;2023-04-06T00:30:43;2.30;99.90
59146;DHT22;44928;53.074;6.646;2023-04-06T00:33:09;2.30;99.90
59146;DHT22;44928;53.074;6.646;2023-04-06T00:35:35;2.20;99.90
59146;DHT22;44928;53.074;6.646;2023-04-06T00:38:00;2.20;99.90
59146;DHT22;44928;53.074;6.646;2023-04-06T00:40:26;2.20;99.90
59146;DHT22;44928;53.074;6.646;2023-04-06T00:42:54;2.20;99.90
59146;DHT22;44928;53.074;6.646;2023-04-06T00:45:20;2.20;99.90
59146;DHT22;44928;53.074;6.646;2023-04-06T00:47:46;2.20;99.90
59146;DHT22;44928;53.074;6.646;2023-04-06T00:50:12;2.10;99.90
59146;DHT22;44928;53.074;6.646;2023-04-06T00:52:37;2.10;99.90
59146;DHT22;44928;53.074;6.646;2023-04-06T00:55:03;2.10;99.90
59146;DHT22;44928;53.074;6.646;2023-04-06T00:57:31;2.10;99.90
59146;DHT22;44928;53.074;6.646;2023-04-06T00:59:56;2.10;99.90
59146;DHT22;44928;53.074;6.646;2023-04-06T01:02:23;2.00;99.90
59146;DHT22;44928;53.074;6.646;2023-04-06T01:04:51;2.00;99.90
59146;DHT22;44928;53.074;6.646;2023-04-06T01:07:17;2.00;99.90
59146;DHT22;44928;53.074;6.646;2023-04-06T01:09:42;2.00;99.90
59146;DHT22;44928;53.074;6.646;2023-04-06T01:12:08;1.90;99.90
59146;DHT22;44928;53.074;6.646;2023-04-06T01:14:34;1.90;99.90
59146;DHT22;44928;53.074;6.646;2023-04-06T01:17:00;1.90;99.90
59146;DHT22;44928;53.074;6.646;2023-04-06T01:19:26;1.90;99.90
59146;DHT22;44928;53.074;6.646;2023-04-06T01:21:52;1.90;99.90
59146;DHT22;44928;53.074;6.646;2023-04-06T01:24:19;1.80;99.90
59146;DHT22;44928;53.074;6.646;2023-04-06T01:26:45;1.80;99.90
59146;DHT22;44928;53.074;6.646;2023-04-06T01:29:11;1.80;99.90
59146;DHT22;44928;53.074;6.646;2023-04-06T01:31:38;1.80;99.90
59146;DHT22;44928;53.074;6.646;2023-04-06T01:34:04;1.80;99.90
59146;DHT22;44928;53.074;6.646;2023-04-06T01:36:30;1.80;99.90
59146;DHT22;44928;53.074;6.646;2023-04-06T01:38:56;1.80;99.90
59146;DHT22;44928;53.074;6.646;2023-04-06T01:41:22;1.70;99.90
59146;DHT22;44928;53.074;6.646;2023-04-06T01:43:48;1.70;99.90
59146;DHT22;44928;53.074;6.646;2023-04-06T01:46:15;1.70;99.90
59146;DHT22;44928;53.074;6.646;2023-04-06T01:48:41;1.60;99.90
59146;DHT22;44928;53.074;6.646;2023-04-06T01:51:07;1.60;99.90
59146;DHT22;44928;53.074;6.646;2023-04-06T01:53:33;1.60;99.90
59146;DHT22;44928;53.074;6.646;2023-04-06T01:55:59;1.60;99.90
59146;DHT22;44928;53.074;6.646;2023-04-06T01:58:24;1.60;99.90
59146;DHT22;44928;53.074;6.646;2023-04-06T02:00:50;1.60;99.90
59146;DHT22;44928;53.074;6.646;2023-04-06T02:03:16;1.50;99.90
59146;DHT22;44928;53.074;6.646;2023-04-06T02:05:42;1.50;99.90
59146;DHT22;44928;53.074;6.646;2023-04-06T02:08:08;1.40;99.90
59146;DHT22;44928;53.074;6.646;2023-04-06T02:10:34;1.40;99.90
59146;DHT22;44928;53.074;6.646;2023-04-06T02:13:00;1.40;99.90
59146;DHT22;44928;53.074;6.646;2023-04-06T02:15:27;1.40;99.90
59146;DHT22;44928;53.074;6.646;2023-04-06T02:17:53;1.40;99.90
59146;DHT22;44928;53.074;6.646;2023-04-06T02:20:19;1.40;99.90
59146;DHT22;44928;53.074;6.646;2023-04-06T02:22:45;1.40;99.90
59146;DHT22;44928;53.074;6.646;2023-04-06T02:25:10;1.40;99.90
59146;DHT22;44928;53.074;6.646;2023-04-06T02:27:37;1.30;99.90
59146;DHT22;44928;53.074;6.646;2023-04-06T02:30:04;1.30;99.90
59146;DHT22;44928;53.074;6.646;2023-04-06T02:32:30;1.20;99.90
59146;DHT22;44928;53.074;6.646;2023-04-06T02:34:56;1.30;99.90
59146;DHT22;44928;53.074;6.646;2023-04-06T02:37:22;1.20;99.90
59146;DHT22;44928;53.074;6.646;2023-04-06T02:39:49;1.20;99.90
59146;DHT22;44928;53.074;6.646;2023-04-06T02:42:15;1.20;99.90
59146;DHT22;44928;53.074;6.646;2023-04-06T02:44:44;1.20;99.90
59146;DHT22;44928;53.074;6.646;2023-04-06T02:47:10;1.20;99.90
59146;DHT22;44928;53.074;6.646;2023-04-06T02:49:36;1.10;99.90
59146;DHT22;44928;53.074;6.646;2023-04-06T02:52:02;1.10;99.90
59146;DHT22;44928;53.074;6.646;2023-04-06T02:54:28;1.10;99.90
59146;DHT22;44928;53.074;6.646;2023-04-06T02:56:53;1.10;99.90
59146;DHT22;44928;53.074;6.646;2023-04-06T02:59:20;1.00;99.90
59146;DHT22;44928;53.074;6.646;2023-04-06T03:01:45;1.00;99.90
59146;DHT22;44928;53.074;6.646;2023-04-06T03:04:11;1.00;99.90
59146;DHT22;44928;53.074;6.646;2023-04-06T03:06:37;0.90;99.90
59146;DHT22;44928;53.074;6.646;2023-04-06T03:09:03;0.80;99.90
59146;DHT22;44928;53.074;6.646;2023-04-06T03:11:29;0.90;99.90
59146;DHT22;44928;53.074;6.646;2023-04-06T03:13:55;0.90;99.90
59146;DHT22;44928;53.074;6.646;2023-04-06T03:16:21;0.90;99.90
59146;DHT22;44928;53.074;6.646;2023-04-06T03:18:46;0.90;99.90
59146;DHT22;44928;53.074;6.646;2023-04-06T03:21:13;0.90;99.90
59146;DHT22;44928;53.074;6.646;2023-04-06T03:23:42;0.80;99.90
59146;DHT22;44928;53.074;6.646;2023-04-06T03:26:08;0.80;99.90
59146;DHT22;44928;53.074;6.646;2023-04-06T03:28:34;0.80;99.90
59146;DHT22;44928;53.074;6.646;2023-04-06T03:31:00;0.80;99.90
59146;DHT22;44928;53.074;6.646;2023-04-06T03:33:25;0.80;99.90
59146;DHT22;44928;53.074;6.646;2023-04-06T03:35:53;0.80;99.90
59146;DHT22;44928;53.074;6.646;2023-04-06T03:38:19;0.80;99.90
59146;DHT22;44928;53.074;6.646;2023-04-06T03:40:45;0.80;99.90
59146;DHT22;44928;53.074;6.646;2023-04-06T03:43:11;0.80;99.90
59146;DHT22;44928;53.074;6.646;2023-04-06T03:45:36;0.70;99.90
59146;DHT22;44928;53.074;6.646;2023-04-06T03:48:03;0.70;99.90
59146;DHT22;44928;53.074;6.646;2023-04-06T03:50:28;0.80;99.90
59146;DHT22;44928;53.074;6.646;2023-04-06T03:52:54;0.70;99.90
59146;DHT22;44928;53.074;6.646;2023-04-06T03:55:20;0.70;99.90
59146;DHT22;44928;53.074;6.646;2023-04-06T03:57:46;0.70;99.90
59146;DHT22;44928;53.074;6.646;2023-04-06T04:00:12;0.70;99.90
59146;DHT22;44928;53.074;6.646;2023-04-06T04:02:39;0.70;99.90
59146;DHT22;44928;53.074;6.646;2023-04-06T04:05:05;0.60;99.90
59146;DHT22;44928;53.074;6.646;2023-04-06T04:07:31;0.60;99.90
59146;DHT22;44928;53.074;6.646;2023-04-06T04:09:56;0.50;99.90
59146;DHT22;44928;53.074;6.646;2023-04-06T04:12:22;0.50;99.90
59146;DHT22;44928;53.074;6.646;2023-04-06T04:14:48;0.50;99.90
59146;DHT22;44928;53.074;6.646;2023-04-06T04:17:14;0.50;99.90
59146;DHT22;44928;53.074;6.646;2023-04-06T04:19:40;0.50;99.90
59146;DHT22;44928;53.074;6.646;2023-04-06T04:22:05;0.50;99.90
59146;DHT22;44928;53.074;6.646;2023-04-06T04:24:32;0.50;99.90
59146;DHT22;44928;53.074;6.646;2023-04-06T04:26:59;0.50;99.90
59146;DHT22;44928;53.074;6.646;2023-04-06T04:29:26;0.50;99.90
59146;DHT22;44928;53.074;6.646;2023-04-06T04:31:52;0.40;99.90
59146;DHT22;44928;53.074;6.646;2023-04-06T04:34:18;0.40;99.90
59146;DHT22;44928;53.074;6.646;2023-04-06T04:36:49;0.40;99.90
59146;DHT22;44928;53.074;6.646;2023-04-06T04:39:15;0.40;99.90
59146;DHT22;44928;53.074;6.646;2023-04-06T04:41:40;0.40;99.90
59146;DHT22;44928;53.074;6.646;2023-04-06T04:44:06;0.40;99.90
59146;DHT22;44928;53.074;6.646;2023-04-06T04:46:32;0.40;99.90
59146;DHT22;44928;53.074;6.646;2023-04-06T04:48:58;0.40;99.90
59146;DHT22;44928;53.074;6.646;2023-04-06T04:51:23;0.40;99.90
59146;DHT22;44928;53.074;6.646;2023-04-06T04:53:50;0.40;99.90
59146;DHT22;44928;53.074;6.646;2023-04-06T04:56:16;0.40;99.90
59146;DHT22;44928;53.074;6.646;2023-04-06T04:58:41;0.30;99.90
59146;DHT22;44928;53.074;6.646;2023-04-06T05:01:08;0.30;99.90
59146;DHT22;44928;53.074;6.646;2023-04-06T05:03:34;0.30;99.90
59146;DHT22;44928;53.074;6.646;2023-04-06T05:06:01;0.30;99.90
59146;DHT22;44928;53.074;6.646;2023-04-06T05:08:27;0.20;99.90
59146;DHT22;44928;53.074;6.646;2023-04-06T05:10:53;0.20;99.90
59146;DHT22;44928;53.074;6.646;2023-04-06T05:13:19;0.20;99.90
59146;DHT22;44928;53.074;6.646;2023-04-06T05:15:45;0.20;99.90
59146;DHT22;44928;53.074;6.646;2023-04-06T05:18:10;0.20;99.90
59146;DHT22;44928;53.074;6.646;2023-04-06T05:20:37;0.30;99.90
59146;DHT22;44928;53.074;6.646;2023-04-06T05:23:03;0.20;99.90
59146;DHT22;44928;53.074;6.646;2023-04-06T05:25:29;0.20;99.90
59146;DHT22;44928;53.074;6.646;2023-04-06T05:27:55;0.30;99.90
59146;DHT22;44928;53.074;6.646;2023-04-06T05:30:21;0.30;99.90
59146;DHT22;44928;53.074;6.646;2023-04-06T05:32:47;0.20;99.90
59146;DHT22;44928;53.074;6.646;2023-04-06T05:35:13;0.30;99.90
59146;DHT22;44928;53.074;6.646;2023-04-06T05:37:39;0.20;99.90
59146;DHT22;44928;53.074;6.646;2023-04-06T05:40:05;0.30;99.90
59146;DHT22;44928;53.074;6.646;2023-04-06T05:42:42;0.30;99.90
59146;DHT22;44928;53.074;6.646;2023-04-06T05:45:11;0.30;99.90
59146;DHT22;44928;53.074;6.646;2023-04-06T05:47:42;0.30;99.90
59146;DHT22;44928;53.074;6.646;2023-04-06T05:50:08;0.30;99.90
59146;DHT22;44928;53.074;6.646;2023-04-06T05:52:34;0.40;99.90
59146;DHT22;44928;53.074;6.646;2023-04-06T05:55:00;0.40;99.90
59146;DHT22;44928;53.074;6.646;2023-04-06T05:57:26;0.40;99.90
59146;DHT22;44928;53.074;6.646;2023-04-06T05:59:52;0.40;99.90
59146;DHT22;44928;53.074;6.646;2023-04-06T06:02:17;0.50;99.90
59146;DHT22;44928;53.074;6.646;2023-04-06T06:04:43;0.50;99.90
59146;DHT22;44928;53.074;6.646;2023-04-06T06:07:09;0.50;99.90
59146;DHT22;44928;53.074;6.646;2023-04-06T06:09:35;0.60;99.90
59146;DHT22;44928;53.074;6.646;2023-04-06T06:12:01;0.60;99.90
59146;DHT22;44928;53.074;6.646;2023-04-06T06:14:26;0.70;99.90
59146;DHT22;44928;53.074;6.646;2023-04-06T06:16:54;0.70;99.90
59146;DHT22;44928;53.074;6.646;2023-04-06T06:19:20;0.80;99.90
59146;DHT22;44928;53.074;6.646;2023-04-06T06:21:46;0.80;99.90
59146;DHT22;44928;53.074;6.646;2023-04-06T06:24:11;0.80;99.90
59146;DHT22;44928;53.074;6.646;2023-04-06T06:26:37;0.90;99.90
59146;DHT22;44928;53.074;6.646;2023-04-06T06:29:05;0.90;99.90
59146;DHT22;44928;53.074;6.646;2023-04-06T06:31:31;1.00;99.90
59146;DHT22;44928;53.074;6.646;2023-04-06T06:33:57;1.00;99.90
59146;DHT22;44928;53.074;6.646;2023-04-06T06:36:23;1.10;99.90
59146;DHT22;44928;53.074;6.646;2023-04-06T06:38:49;1.20;99.90
59146;DHT22;44928;53.074;6.646;2023-04-06T06:41:15;1.20;99.90
59146;DHT22;44928;53.074;6.646;2023-04-06T06:43:41;1.30;99.90
59146;DHT22;44928;53.074;6.646;2023-04-06T06:46:07;1.40;99.90
59146;DHT22;44928;53.074;6.646;2023-04-06T06:48:33;1.50;99.90
59146;DHT22;44928;53.074;6.646;2023-04-06T06:50:58;1.60;99.90
59146;DHT22;44928;53.074;6.646;2023-04-06T06:53:24;1.60;99.90
59146;DHT22;44928;53.074;6.646;2023-04-06T06:55:50;1.80;99.90
59146;DHT22;44928;53.074;6.646;2023-04-06T06:58:19;1.90;99.90
59146;DHT22;44928;53.074;6.646;2023-04-06T07:00:48;2.00;99.90
59146;DHT22;44928;53.074;6.646;2023-04-06T07:03:14;2.10;99.90
59146;DHT22;44928;53.074;6.646;2023-04-06T07:05:45;2.30;99.90
59146;DHT22;44928;53.074;6.646;2023-04-06T07:08:16;2.40;99.90
59146;DHT22;44928;53.074;6.646;2023-04-06T07:10:41;2.50;99.90
59146;DHT22;44928;53.074;6.646;2023-04-06T07:13:07;2.70;99.90
59146;DHT22;44928;53.074;6.646;2023-04-06T07:15:33;2.80;99.90
59146;DHT22;44928;53.074;6.646;2023-04-06T07:17:59;2.90;99.90
59146;DHT22;44928;53.074;6.646;2023-04-06T07:20:25;3.00;99.90
59146;DHT22;44928;53.074;6.646;2023-04-06T07:22:51;3.20;99.90
59146;DHT22;44928;53.074;6.646;2023-04-06T07:25:16;3.30;99.90
59146;DHT22;44928;53.074;6.646;2023-04-06T07:27:42;3.40;99.90
59146;DHT22;44928;53.074;6.646;2023-04-06T07:30:08;3.60;99.90
59146;DHT22;44928;53.074;6.646;2023-04-06T07:32:34;3.60;99.90
59146;DHT22;44928;53.074;6.646;2023-04-06T07:35:01;3.70;99.90
59146;DHT22;44928;53.074;6.646;2023-04-06T07:37:27;3.80;99.90
59146;DHT22;44928;53.074;6.646;2023-04-06T07:39:53;4.00;99.90
59146;DHT22;44928;53.074;6.646;2023-04-06T07:42:18;4.10;99.90
59146;DHT22;44928;53.074;6.646;2023-04-06T07:44:44;4.20;99.90
59146;DHT22;44928;53.074;6.646;2023-04-06T07:47:10;4.30;99.90
59146;DHT22;44928;53.074;6.646;2023-04-06T07:49:36;4.50;99.90
59146;DHT22;44928;53.074;6.646;2023-04-06T07:52:02;4.60;99.90
59146;DHT22;44928;53.074;6.646;2023-04-06T07:54:28;4.70;99.90
59146;DHT22;44928;53.074;6.646;2023-04-06T07:56:54;4.90;99.90
59146;DHT22;44928;53.074;6.646;2023-04-06T07:59:20;5.00;99.90
59146;DHT22;44928;53.074;6.646;2023-04-06T08:01:46;5.10;99.90
59146;DHT22;44928;53.074;6.646;2023-04-06T08:04:11;5.20;99.90
59146;DHT22;44928;53.074;6.646;2023-04-06T08:06:37;5.30;99.90
59146;DHT22;44928;53.074;6.646;2023-04-06T08:09:03;5.40;99.90
59146;DHT22;44928;53.074;6.646;2023-04-06T08:11:29;5.60;99.90
59146;DHT22;44928;53.074;6.646;2023-04-06T08:13:55;5.70;99.90
59146;DHT22;44928;53.074;6.646;2023-04-06T08:16:24;5.80;99.90
59146;DHT22;44928;53.074;6.646;2023-04-06T08:18:50;6.00;99.90
59146;DHT22;44928;53.074;6.646;2023-04-06T08:21:16;6.10;99.90
59146;DHT22;44928;53.074;6.646;2023-04-06T08:23:41;6.20;99.90
59146;DHT22;44928;53.074;6.646;2023-04-06T08:26:07;6.30;99.90
59146;DHT22;44928;53.074;6.646;2023-04-06T08:28:33;6.40;99.90
59146;DHT22;44928;53.074;6.646;2023-04-06T08:31:06;6.60;99.90
59146;DHT22;44928;53.074;6.646;2023-04-06T08:33:33;6.70;99.90
59146;DHT22;44928;53.074;6.646;2023-04-06T08:36:15;6.80;99.90
59146;DHT22;44928;53.074;6.646;2023-04-06T08:38:42;6.90;99.90
59146;DHT22;44928;53.074;6.646;2023-04-06T08:41:12;7.00;99.60
59146;DHT22;44928;53.074;6.646;2023-04-06T08:43:50;7.20;99.40
59146;DHT22;44928;53.074;6.646;2023-04-06T08:46:17;7.30;98.10
59146;DHT22;44928;53.074;6.646;2023-04-06T08:48:44;7.40;98.40
59146;DHT22;44928;53.074;6.646;2023-04-06T08:51:11;7.50;96.70
59146;DHT22;44928;53.074;6.646;2023-04-06T08:53:38;7.70;95.50
59146;DHT22;44928;53.074;6.646;2023-04-06T08:56:04;7.80;94.60
59146;DHT22;44928;53.074;6.646;2023-04-06T08:58:39;8.00;91.00
59146;DHT22;44928;53.074;6.646;2023-04-06T09:01:07;8.20;77.40
59146;DHT22;44928;53.074;6.646;2023-04-06T09:03:37;8.30;76.40
59146;DHT22;44928;53.074;6.646;2023-04-06T09:06:05;8.40;70.60
59146;DHT22;44928;53.074;6.646;2023-04-06T09:08:32;8.50;71.20
59146;DHT22;44928;53.074;6.646;2023-04-06T09:10:58;8.60;73.60
59146;DHT22;44928;53.074;6.646;2023-04-06T09:13:23;8.70;70.90
59146;DHT22;44928;53.074;6.646;2023-04-06T09:16:02;8.80;74.40
59146;DHT22;44928;53.074;6.646;2023-04-06T09:18:30;8.90;72.30
59146;DHT22;44928;53.074;6.646;2023-04-06T09:21:01;9.10;69.60
59146;DHT22;44928;53.074;6.646;2023-04-06T09:23:28;9.20;67.40
59146;DHT22;44928;53.074;6.646;2023-04-06T09:26:14;9.40;66.20
59146;DHT22;44928;53.074;6.646;2023-04-06T09:31:14;9.70;65.70
59146;DHT22;44928;53.074;6.646;2023-04-06T09:33:43;9.80;66.00
59146;DHT22;44928;53.074;6.646;2023-04-06T09:36:10;9.90;66.90
59146;DHT22;44928;53.074;6.646;2023-04-06T09:38:51;10.00;65.30
59146;DHT22;44928;53.074;6.646;2023-04-06T09:41:28;10.10;62.00
59146;DHT22;44928;53.074;6.646;2023-04-06T09:44:12;10.10;61.20
59146;DHT22;44928;53.074;6.646;2023-04-06T09:46:40;10.20;62.40
59146;DHT22;44928;53.074;6.646;2023-04-06T09:49:07;10.30;62.70
59146;DHT22;44928;53.074;6.646;2023-04-06T09:51:38;10.30;63.00
59146;DHT22;44928;53.074;6.646;2023-04-06T09:54:04;10.40;62.90
59146;DHT22;44928;53.074;6.646;2023-04-06T09:59:09;10.60;64.40
59146;DHT22;44928;53.074;6.646;2023-04-06T10:01:37;10.70;62.60
59146;DHT22;44928;53.074;6.646;2023-04-06T10:04:36;10.70;60.80
59146;DHT22;44928;53.074;6.646;2023-04-06T10:07:03;10.80;60.60
59146;DHT22;44928;53.074;6.646;2023-04-06T10:09:30;10.90;59.70
59146;DHT22;44928;53.074;6.646;2023-04-06T10:12:07;11.00;60.10
59146;DHT22;44928;53.074;6.646;2023-04-06T10:14:34;11.00;59.70
59146;DHT22;44928;53.074;6.646;2023-04-06T10:17:04;11.10;58.80
59146;DHT22;44928;53.074;6.646;2023-04-06T10:20:06;11.10;58.30
59146;DHT22;44928;53.074;6.646;2023-04-06T10:22:43;11.10;57.40
59146;DHT22;44928;53.074;6.646;2023-04-06T10:25:16;11.20;57.80
59146;DHT22;44928;53.074;6.646;2023-04-06T10:27:42;11.20;58.90
59146;DHT22;44928;53.074;6.646;2023-04-06T10:30:08;11.30;58.40
59146;DHT22;44928;53.074;6.646;2023-04-06T10:32:38;11.40;58.50
59146;DHT22;44928;53.074;6.646;2023-04-06T10:35:11;11.50;57.80
59146;DHT22;44928;53.074;6.646;2023-04-06T10:38:02;11.60;57.40
59146;DHT22;44928;53.074;6.646;2023-04-06T10:40:28;11.80;56.80
59146;DHT22;44928;53.074;6.646;2023-04-06T10:42:54;11.80;56.10
59146;DHT22;44928;53.074;6.646;2023-04-06T10:45:24;11.90;55.60
59146;DHT22;44928;53.074;6.646;2023-04-06T10:47:54;11.90;56.50
59146;DHT22;44928;53.074;6.646;2023-04-06T10:50:21;12.00;56.60
59146;DHT22;44928;53.074;6.646;2023-04-06T10:53:01;12.00;56.90
59146;DHT22;44928;53.074;6.646;2023-04-06T10:55:28;12.10;55.70
59146;DHT22;44928;53.074;6.646;2023-04-06T10:57:54;12.10;56.80
59146;DHT22;44928;53.074;6.646;2023-04-06T11:00:21;12.30;56.90
59146;DHT22;44928;53.074;6.646;2023-04-06T11:02:46;12.40;54.60
59146;DHT22;44928;53.074;6.646;2023-04-06T11:05:14;12.40;53.90
59146;DHT22;44928;53.074;6.646;2023-04-06T11:07:41;12.40;54.90
59146;DHT22;44928;53.074;6.646;2023-04-06T11:10:08;12.50;54.40
59146;DHT22;44928;53.074;6.646;2023-04-06T11:12:34;12.60;54.30
59146;DHT22;44928;53.074;6.646;2023-04-06T11:15:02;12.60;54.20
59146;DHT22;44928;53.074;6.646;2023-04-06T11:17:36;12.60;53.80
59146;DHT22;44928;53.074;6.646;2023-04-06T11:20:03;12.60;54.60
59146;DHT22;44928;53.074;6.646;2023-04-06T11:22:30;12.80;54.30
59146;DHT22;44928;53.074;6.646;2023-04-06T11:25:06;12.70;53.50
59146;DHT22;44928;53.074;6.646;2023-04-06T11:27:34;12.70;53.50
59146;DHT22;44928;53.074;6.646;2023-04-06T11:30:00;12.70;53.90
59146;DHT22;44928;53.074;6.646;2023-04-06T11:32:26;12.80;53.90
59146;DHT22;44928;53.074;6.646;2023-04-06T11:34:52;12.90;54.40
59146;DHT22;44928;53.074;6.646;2023-04-06T11:37:18;13.10;54.70
59146;DHT22;44928;53.074;6.646;2023-04-06T11:39:49;13.20;53.70
59146;DHT22;44928;53.074;6.646;2023-04-06T11:42:29;13.10;52.20
59146;DHT22;44928;53.074;6.646;2023-04-06T11:44:58;13.20;52.10
59146;DHT22;44928;53.074;6.646;2023-04-06T11:47:35;13.10;52.60
59146;DHT22;44928;53.074;6.646;2023-04-06T11:50:11;13.10;52.70
59146;DHT22;44928;53.074;6.646;2023-04-06T11:52:39;13.20;53.20
59146;DHT22;44928;53.074;6.646;2023-04-06T11:55:16;13.10;52.60
59146;DHT22;44928;53.074;6.646;2023-04-06T11:57:42;13.20;52.80
59146;DHT22;44928;53.074;6.646;2023-04-06T12:00:09;13.20;52.80
59146;DHT22;44928;53.074;6.646;2023-04-06T12:02:36;13.20;53.20
59146;DHT22;44928;53.074;6.646;2023-04-06T12:05:04;13.20;53.70
59146;DHT22;44928;53.074;6.646;2023-04-06T12:07:31;13.30;53.80
59146;DHT22;44928;53.074;6.646;2023-04-06T12:09:57;13.40;53.90
59146;DHT22;44928;53.074;6.646;2023-04-06T12:12:23;13.40;53.30
59146;DHT22;44928;53.074;6.646;2023-04-06T12:14:49;13.40;53.60
59146;DHT22;44928;53.074;6.646;2023-04-06T12:17:15;13.50;53.00
59146;DHT22;44928;53.074;6.646;2023-04-06T12:19:40;13.30;50.30
59146;DHT22;44928;53.074;6.646;2023-04-06T12:22:06;13.20;50.90
59146;DHT22;44928;53.074;6.646;2023-04-06T12:24:32;13.30;52.60
59146;DHT22;44928;53.074;6.646;2023-04-06T12:26:58;13.30;52.40
59146;DHT22;44928;53.074;6.646;2023-04-06T12:29:26;13.30;52.50
59146;DHT22;44928;53.074;6.646;2023-04-06T12:31:52;13.40;50.70
59146;DHT22;44928;53.074;6.646;2023-04-06T12:34:18;13.30;51.50
59146;DHT22;44928;53.074;6.646;2023-04-06T12:36:45;13.30;51.70
59146;DHT22;44928;53.074;6.646;2023-04-06T12:39:11;13.30;52.00
59146;DHT22;44928;53.074;6.646;2023-04-06T12:41:37;13.30;51.90
59146;DHT22;44928;53.074;6.646;2023-04-06T12:44:06;13.30;52.50
59146;DHT22;44928;53.074;6.646;2023-04-06T12:46:31;13.40;52.10
59146;DHT22;44928;53.074;6.646;2023-04-06T12:48:58;13.40;51.60
59146;DHT22;44928;53.074;6.646;2023-04-06T12:51:27;13.40;52.20
59146;DHT22;44928;53.074;6.646;2023-04-06T12:53:53;13.40;52.20
59146;DHT22;44928;53.074;6.646;2023-04-06T12:56:19;13.40;51.20
59146;DHT22;44928;53.074;6.646;2023-04-06T12:58:48;13.30;50.40
59146;DHT22;44928;53.074;6.646;2023-04-06T13:01:14;13.30;52.00
59146;DHT22;44928;53.074;6.646;2023-04-06T13:03:40;13.30;52.40
59146;DHT22;44928;53.074;6.646;2023-04-06T13:06:06;13.50;52.50
59146;DHT22;44928;53.074;6.646;2023-04-06T13:08:34;13.50;52.80
59146;DHT22;44928;53.074;6.646;2023-04-06T13:11:01;13.50;51.90
59146;DHT22;44928;53.074;6.646;2023-04-06T13:13:28;13.50;50.80
59146;DHT22;44928;53.074;6.646;2023-04-06T13:16:00;13.40;51.30
59146;DHT22;44928;53.074;6.646;2023-04-06T13:18:28;13.40;51.30
59146;DHT22;44928;53.074;6.646;2023-04-06T13:20:57;13.40;51.10
59146;DHT22;44928;53.074;6.646;2023-04-06T13:23:24;13.50;51.20
59146;DHT22;44928;53.074;6.646;2023-04-06T13:26:00;13.40;51.00
59146;DHT22;44928;53.074;6.646;2023-04-06T13:28:26;13.40;51.60
59146;DHT22;44928;53.074;6.646;2023-04-06T13:30:52;13.50;51.80
59146;DHT22;44928;53.074;6.646;2023-04-06T13:33:18;13.50;51.10
59146;DHT22;44928;53.074;6.646;2023-04-06T13:35:45;13.50;51.10
59146;DHT22;44928;53.074;6.646;2023-04-06T13:38:11;13.50;51.30
59146;DHT22;44928;53.074;6.646;2023-04-06T13:40:41;13.50;50.90
59146;DHT22;44928;53.074;6.646;2023-04-06T13:43:07;13.50;51.40
59146;DHT22;44928;53.074;6.646;2023-04-06T13:45:33;13.40;51.70
59146;DHT22;44928;53.074;6.646;2023-04-06T13:47:59;13.40;52.60
59146;DHT22;44928;53.074;6.646;2023-04-06T13:50:28;13.40;52.40
59146;DHT22;44928;53.074;6.646;2023-04-06T13:52:55;13.40;52.00
59146;DHT22;44928;53.074;6.646;2023-04-06T13:55:21;13.30;52.40
59146;DHT22;44928;53.074;6.646;2023-04-06T13:57:50;13.30;52.90
59146;DHT22;44928;53.074;6.646;2023-04-06T14:00:17;13.20;52.60
59146;DHT22;44928;53.074;6.646;2023-04-06T14:02:43;13.20;53.30
59146;DHT22;44928;53.074;6.646;2023-04-06T14:05:09;13.10;53.80
59146;DHT22;44928;53.074;6.646;2023-04-06T14:07:35;13.10;53.50
59146;DHT22;44928;53.074;6.646;2023-04-06T14:10:02;13.00;54.20
59146;DHT22;44928;53.074;6.646;2023-04-06T14:12:28;13.00;54.30
59146;DHT22;44928;53.074;6.646;2023-04-06T14:14:53;13.00;54.80
59146;DHT22;44928;53.074;6.646;2023-04-06T14:17:20;12.90;55.00
59146;DHT22;44928;53.074;6.646;2023-04-06T14:19:45;12.90;55.90
59146;DHT22;44928;53.074;6.646;2023-04-06T14:22:11;12.90;56.10
59146;DHT22;44928;53.074;6.646;2023-04-06T14:24:37;13.00;55.40
59146;DHT22;44928;53.074;6.646;2023-04-06T14:27:03;13.00;55.90
59146;DHT22;44928;53.074;6.646;2023-04-06T14:29:29;13.00;56.10
59146;DHT22;44928;53.074;6.646;2023-04-06T14:31:55;12.90;56.60
59146;DHT22;44928;53.074;6.646;2023-04-06T14:34:28;12.80;57.30
59146;DHT22;44928;53.074;6.646;2023-04-06T14:36:54;12.70;57.20
59146;DHT22;44928;53.074;6.646;2023-04-06T14:39:20;12.60;57.60
59146;DHT22;44928;53.074;6.646;2023-04-06T14:41:46;12.50;58.00
59146;DHT22;44928;53.074;6.646;2023-04-06T14:44:14;12.50;58.50
59146;DHT22;44928;53.074;6.646;2023-04-06T14:46:40;12.30;58.50
59146;DHT22;44928;53.074;6.646;2023-04-06T14:49:06;12.30;59.40
59146;DHT22;44928;53.074;6.646;2023-04-06T14:51:34;12.20;60.10
59146;DHT22;44928;53.074;6.646;2023-04-06T14:54:01;12.20;60.90
59146;DHT22;44928;53.074;6.646;2023-04-06T14:56:30;12.10;63.70
59146;DHT22;44928;53.074;6.646;2023-04-06T14:59:00;12.10;67.00
59146;DHT22;44928;53.074;6.646;2023-04-06T15:01:29;11.90;66.50
59146;DHT22;44928;53.074;6.646;2023-04-06T15:03:58;11.90;68.10
59146;DHT22;44928;53.074;6.646;2023-04-06T15:06:24;11.80;67.40
59146;DHT22;44928;53.074;6.646;2023-04-06T15:08:51;11.80;65.50
59146;DHT22;44928;53.074;6.646;2023-04-06T15:11:16;11.70;68.30
59146;DHT22;44928;53.074;6.646;2023-04-06T15:13:42;11.60;70.60
59146;DHT22;44928;53.074;6.646;2023-04-06T15:16:08;11.60;74.20
59146;DHT22;44928;53.074;6.646;2023-04-06T15:18:34;11.60;77.90
59146;DHT22;44928;53.074;6.646;2023-04-06T15:21:01;11.60;78.40
59146;DHT22;44928;53.074;6.646;2023-04-06T15:23:27;11.60;78.70
59146;DHT22;44928;53.074;6.646;2023-04-06T15:25:56;11.50;78.00
59146;DHT22;44928;53.074;6.646;2023-04-06T15:28:22;11.50;82.20
59146;DHT22;44928;53.074;6.646;2023-04-06T15:30:48;11.50;78.10
59146;DHT22;44928;53.074;6.646;2023-04-06T15:33:14;11.40;78.30
59146;DHT22;44928;53.074;6.646;2023-04-06T15:35:39;11.30;76.60
59146;DHT22;44928;53.074;6.646;2023-04-06T15:38:08;11.30;81.30
59146;DHT22;44928;53.074;6.646;2023-04-06T15:40:42;11.20;79.10
59146;DHT22;44928;53.074;6.646;2023-04-06T15:43:08;11.20;79.10
59146;DHT22;44928;53.074;6.646;2023-04-06T15:45:34;11.10;82.40